Wetterdaten: aktuell Sonntag, 19.09.2021 15:46
Datum Zeit Temp. A. Pool Temp. Temp. 5cm Feuchte A. Luftdruck Regen Wind Richtung Richtung Sonnenschein ET UV Solar Taupunkt Windchill Windben Empfang
19.09.2021 15:46 18,8 C 19,4 C 18,3 C 66 % 1010,5 hPa 0,0 l/m 9,1 km/h (2 Bft) O-NO 68 2 min 0,000 mm 1,7 UV-I 451 W/m 12,3 C 17,6 C 14,5 km/h (3 Bft) 97,37 %
19.09.2021 15:44 18,6 C 19,4 C 18,3 C 66 % 1010,5 hPa 0,0 l/m 12,9 km/h (3 Bft) O 87 2 min 0,000 mm 1,7 UV-I 453 W/m 12,1 C 16,1 C 19,3 km/h (3 Bft) 95,74 %
19.09.2021 15:42 18,6 C 19,4 C 18,3 C 65 % 1010,7 hPa 0,0 l/m 13,3 km/h (3 Bft) O-NO 73 0 min 0,000 mm 1,6 UV-I 107 W/m 11,9 C 16,0 C 24,1 km/h (4 Bft) 96,15 %
19.09.2021 15:40 18,9 C 19,4 C 18,9 C 66 % 1010,6 hPa 0,0 l/m 12,7 km/h (3 Bft) NO 56 0 min 0,000 mm 1,3 UV-I 142 W/m 12,4 C 16,6 C 20,9 km/h (4 Bft) 97,56 %
19.09.2021 15:38 19,3 C 19,4 C 19,4 C 63 % 1010,6 hPa 0,0 l/m 16,4 km/h (3 Bft) O 80 2 min 0,000 mm 1,5 UV-I 565 W/m 12,1 C 16,1 C 20,9 km/h (4 Bft) 98,31 %
19.09.2021 15:36 19,3 C 20,0 C 20,0 C 66 % 1010,5 hPa 0,0 l/m 13,8 km/h (3 Bft) O 82 2 min 0,000 mm 1,9 UV-I 577 W/m 12,8 C 16,7 C 20,9 km/h (4 Bft) 97,87 %
19.09.2021 15:34 19,3 C 20,0 C 20,0 C 66 % 1010,5 hPa 0,0 l/m 13,4 km/h (3 Bft) N-NO 26 2 min 0,000 mm 2,0 UV-I 587 W/m 12,8 C 16,8 C 19,3 km/h (3 Bft) 97,83 %
19.09.2021 15:32 19,3 C 20,0 C 20,0 C 64 % 1010,6 hPa 0,0 l/m 12,3 km/h (3 Bft) N-NO 28 2 min 0,000 mm 2,0 UV-I 555 W/m 12,3 C 17,1 C 19,3 km/h (3 Bft) 95,83 %
19.09.2021 15:30 19,5 C 20,0 C 20,0 C 65 % 1010,7 hPa 0,0 l/m 14,8 km/h (3 Bft) O-NO 61 2 min 0,000 mm 2,0 UV-I 549 W/m 12,7 C 16,7 C 19,3 km/h (3 Bft) 100,00 %
19.09.2021 15:28 19,6 C 20,0 C 21,1 C 65 % 1010,7 hPa 0,0 l/m 11,0 km/h (2 Bft) NO 51 2 min 0,000 mm 2,1 UV-I 561 W/m 12,8 C 17,9 C 17,7 km/h (3 Bft) 100,00 %
19.09.2021 15:26 19,7 C 19,4 C 21,1 C 68 % 1010,7 hPa 0,0 l/m 9,9 km/h (2 Bft) NO 43 2 min 0,000 mm 2,1 UV-I 573 W/m 13,6 C 18,3 C 14,5 km/h (3 Bft) 100,00 %
19.09.2021 15:24 19,6 C 19,4 C 21,1 C 68 % 1010,7 hPa 0,0 l/m 11,6 km/h (2 Bft) O-NO 69 2 min 0,000 mm 2,1 UV-I 562 W/m 13,5 C 17,7 C 19,3 km/h (3 Bft) 100,00 %
19.09.2021 15:22 19,5 C 19,4 C 21,7 C 65 % 1010,7 hPa 0,0 l/m 13,7 km/h (3 Bft) O 92 2 min 0,000 mm 2,1 UV-I 597 W/m 12,7 C 17,0 C 19,3 km/h (3 Bft) 100,00 %
19.09.2021 15:20 19,3 C 19,4 C 21,7 C 66 % 1010,8 hPa 0,0 l/m 11,4 km/h (2 Bft) O-NO 72 2 min 0,000 mm 2,1 UV-I 643 W/m 12,8 C 17,4 C 19,3 km/h (3 Bft) 98,44 %
19.09.2021 15:18 19,2 C 19,4 C 20,6 C 65 % 1010,8 hPa 0,0 l/m 13,3 km/h (3 Bft) O-NO 65 2 min 0,000 mm 2,2 UV-I 638 W/m 12,5 C 16,7 C 19,3 km/h (3 Bft) 100,00 %
19.09.2021 15:16 19,1 C 19,4 C 20,0 C 67 % 1010,8 hPa 0,0 l/m 14,6 km/h (3 Bft) O-SO 107 2 min 0,000 mm 2,2 UV-I 621 W/m 12,8 C 16,3 C 19,3 km/h (3 Bft) 98,39 %
19.09.2021 15:14 18,9 C 19,4 C 19,4 C 67 % 1010,7 hPa 0,0 l/m 11,7 km/h (2 Bft) O-NO 78 2 min 0,000 mm 2,3 UV-I 613 W/m 12,6 C 16,9 C 17,7 km/h (3 Bft) 100,00 %
19.09.2021 15:12 18,8 C 19,4 C 19,4 C 66 % 1010,8 hPa 0,0 l/m 10,7 km/h (2 Bft) O-NO 63 2 min 0,000 mm 2,3 UV-I 584 W/m 12,3 C 17,1 C 16,1 km/h (3 Bft) 100,00 %
19.09.2021 15:10 18,8 C 19,4 C 18,9 C 66 % 1010,8 hPa 0,0 l/m 11,8 km/h (2 Bft) O-NO 67 2 min 0,000 mm 2,3 UV-I 564 W/m 12,3 C 16,7 C 17,7 km/h (3 Bft) 100,00 %
19.09.2021 15:08 18,8 C 19,4 C 18,9 C 68 % 1010,8 hPa 0,0 l/m 12,9 km/h (3 Bft) NO 49 2 min 0,000 mm 2,3 UV-I 549 W/m 12,8 C 16,4 C 19,3 km/h (3 Bft) 100,00 %
19.09.2021 15:06 18,7 C 19,4 C 18,9 C 68 % 1010,8 hPa 0,0 l/m 11,1 km/h (2 Bft) O-NO 75 2 min 0,000 mm 2,3 UV-I 554 W/m 12,7 C 16,8 C 17,7 km/h (3 Bft) 98,11 %
19.09.2021 15:04 18,6 C 19,4 C 18,9 C 70 % 1010,8 hPa 0,0 l/m 10,3 km/h (2 Bft) NO 54 2 min 0,000 mm 2,3 UV-I 553 W/m 13,0 C 17,0 C 20,9 km/h (4 Bft) 100,00 %
19.09.2021 15:02 18,7 C 19,4 C 18,9 C 68 % 1010,8 hPa 0,0 l/m 16,0 km/h (3 Bft) O-NO 78 2 min 0,254 mm 2,4 UV-I 567 W/m 12,7 C 15,4 C 20,9 km/h (4 Bft) 100,00 %
19.09.2021 15:00 18,5 C 19,4 C 19,4 C 69 % 1010,8 hPa 0,0 l/m 12,0 km/h (2 Bft) O 87 2 min 0,000 mm 2,4 UV-I 576 W/m 12,7 C 16,3 C 19,3 km/h (3 Bft) 100,00 %
19.09.2021 14:58 18,2 C 19,4 C 19,4 C 71 % 1010,8 hPa 0,0 l/m 11,1 km/h (2 Bft) O 85 2 min 0,000 mm 2,4 UV-I 594 W/m 12,9 C 16,3 C 22,5 km/h (4 Bft) 97,56 %
19.09.2021 14:56 18,1 C 19,4 C 19,4 C 70 % 1010,8 hPa 0,0 l/m 8,4 km/h (2 Bft) O 96 2 min 0,000 mm 2,2 UV-I 390 W/m 12,5 C 17,2 C 16,1 km/h (3 Bft) 100,00 %
19.09.2021 14:54 18,1 C 19,4 C 19,4 C 71 % 1010,9 hPa 0,0 l/m 12,0 km/h (2 Bft) O-SO 107 0 min 0,000 mm 1,9 UV-I 301 W/m 12,8 C 15,8 C 19,3 km/h (3 Bft) 97,37 %
19.09.2021 14:52 18,0 C 19,4 C 19,4 C 71 % 1010,8 hPa 0,0 l/m 12,7 km/h (3 Bft) O-SO 102 0 min 0,000 mm 2,1 UV-I 258 W/m 12,7 C 15,5 C 17,7 km/h (3 Bft) 100,00 %
19.09.2021 14:50 17,9 C 19,4 C 18,9 C 70 % 1010,8 hPa 0,0 l/m 8,1 km/h (2 Bft) NO 56 0 min 0,000 mm 1,8 UV-I 206 W/m 12,3 C 17,1 C 12,9 km/h (3 Bft) 100,00 %
19.09.2021 14:48 17,7 C 19,4 C 18,9 C 71 % 1010,9 hPa 0,0 l/m 12,3 km/h (3 Bft) O-NO 57 0 min 0,000 mm 1,9 UV-I 213 W/m 12,4 C 15,3 C 19,3 km/h (3 Bft) 96,61 %
19.09.2021 14:46 17,8 C 19,4 C 18,9 C 69 % 1010,9 hPa 0,0 l/m 14,8 km/h (3 Bft) O-NO 59 0 min 0,000 mm 1,7 UV-I 190 W/m 12,0 C 14,6 C 22,5 km/h (4 Bft) 100,00 %
_ Min-Zeit 05:34 07:40 04:54 15:38 15:34 - 00:00 - - - - - - 05:34 07:10 00:00 03:26
Minimum _ 8,8 C 18,9 C 6,7 C 63 % 1010,5 hPa - 0,0 km/h (0 Bft) - - - - - - 8,2 C 8,0 C 0,0 km/h (0 Bft) 85,71 %
_ Max-Zeit 15:26 00:00 11:40 00:50 00:00 00:00 13:24 - - 08:34 14:02 12:38 13:28 15:26 15:26 11:24 00:14
Maximum _ 19,7 C 20,0 C 28,9 C 96 % 1014,0 hPa 0,0 l/m 20,8 km/h
O (4 Bft)
- - 2 min 0,304 mm 3,5 UV-I 869 W/m 13,6 C 18,3 C 29,0 km/h
O (5 Bft)
100,00 %
Durchschnitt _ 13,1 C 19,4 C 13,5 C 87 % 1012,7 hPa #0,0 l/m 7,3 km/h (2 Bft) O - #3:26 h #1,549 mm 1,9 UV-I 306 W/m 10,9 C 11,8 C 11,2 km/h (2 Bft) 97,30 %